Observations for STAVERTON PRIVATE, United Kingdom (EGBJ)

EGBJ 201650Z 27009KT 9999 FEW025 SCT040 21/14 Q1018 
EGBJ 201620Z 26010KT 220V290 9999 FEW025 SCT040 22/14 Q1018 
EGBJ 201550Z 24009KT 200V280 9999 SCT025 22/14 Q1018
EGBJ 201520Z 23007KT 200V270 9999 SCT024 22/15 Q1019
EGBJ 201450Z 23008KT 200V270 9999 SCT024 21/15 Q1019
EGBJ 201420Z 22011KT 190V260 9999 SCT020 21/16 Q1019
EGBJ 201350Z 23010KT 190V260 9999 FEW015 BKN020 21/16 Q1019 
EGBJ 201320Z 22011KT 9999 FEW015 BKN019 21/16 Q1019 
EGBJ 201250Z 23011KT 9999 FEW015 BKN017 21/16 Q1019 
EGBJ 201220Z 22011KT 9999 SCT015 BKN017 20/17 Q1019 
EGBJ 201150Z 22011KT 190V250 9999 SCT016 BKN020 20/16 Q1019 
EGBJ 201120Z 21012KT 9999 -RADZ FEW012 BKN018 19/16 Q1019   
EGBJ 201050Z 22010KT 190V260 9999 4000S -RADZ FEW008 BKN019 19/16 Q1019 
EGBJ 201020Z 22012KT 9999 -RADZ FEW011 BKN019 20/16 Q1019   
EGBJ 200950Z 23012KT 200V270 9999 -RADZ FEW011 BKN019 20/16 Q1019   
EGBJ 200920Z 22015KT 9999 FEW011 BKN019 20/16 Q1019 
EGBJ 200850Z 23012KT 200V270 9999 FEW012 BKN020 20/16 Q1019 
EGBJ 200820Z 22012KT 9999 FEW016 SCT022 20/16 Q1019 
EGBJ 200750Z 23009KT 200V260 9999 FEW014 BKN020 19/16 Q1019 
EGBJ 200720Z 22009KT 9999 BKN012 18/15 Q1019
EGBJ 200650Z 21010KT 9999 BKN012 18/15 Q1019
EGBJ 191820Z 24010KT 9999 SCT030 21/16 Q1021
EGBJ 191750Z 23009KT 9999 SCT030 21/16 Q1022
EGBJ 191720Z 24011KT 210V280 9999 SCT030 22/16 Q1022
EGBJ 191650Z 23010KT 200V270 9999 SCT032 22/16 Q1021
EGBJ 191620Z 23013KT 190V260 9999 SCT032 22/16 Q1021